createdAt,value
2018-02-10T00:00:23.059Z,0.30
2018-02-10T00:02:50.556Z,0.30
2018-02-10T00:05:18.038Z,0.30
2018-02-10T00:07:45.544Z,0.30
2018-02-10T00:10:13.031Z,0.30
2018-02-10T00:12:40.540Z,0.30
2018-02-10T00:15:08.024Z,0.30
2018-02-10T00:17:35.497Z,0.30
2018-02-10T00:20:03.001Z,0.30
2018-02-10T00:22:35.169Z,0.30
2018-02-10T00:25:02.722Z,0.30
2018-02-10T00:27:30.204Z,0.30
2018-02-10T00:29:57.680Z,0.30
2018-02-10T00:32:25.177Z,0.30
2018-02-10T00:34:53.422Z,0.30
2018-02-10T00:37:20.941Z,0.30
2018-02-10T00:39:48.416Z,0.30
2018-02-10T00:42:15.906Z,0.30
2018-02-10T00:44:43.380Z,0.30
2018-02-10T00:47:11.650Z,0.30
2018-02-10T00:49:39.888Z,0.30
2018-02-10T00:52:07.402Z,0.30
2018-02-10T00:54:34.862Z,0.30
2018-02-10T00:57:02.374Z,0.30
2018-02-10T00:59:29.839Z,0.30
2018-02-10T01:01:57.335Z,0.20
2018-02-10T01:04:24.814Z,0.20
2018-02-10T01:06:52.355Z,0.20
2018-02-10T01:09:19.836Z,0.20
2018-02-10T01:11:47.364Z,0.30
2018-02-10T01:14:14.944Z,0.30
2018-02-10T01:16:42.541Z,0.30
2018-02-10T01:19:10.006Z,0.40
2018-02-10T01:21:37.492Z,-1.10
2018-02-10T01:24:05.784Z,0.40
2018-02-10T01:26:33.242Z,0.40
2018-02-10T01:29:00.745Z,0.40
2018-02-10T01:31:28.225Z,0.40
2018-02-10T01:33:55.717Z,0.40
2018-02-10T01:36:23.221Z,0.40
2018-02-10T01:38:50.702Z,0.40
2018-02-10T01:41:18.952Z,0.50
2018-02-10T01:43:46.450Z,0.50
2018-02-10T01:46:14.692Z,0.60
2018-02-10T01:48:42.194Z,0.50
2018-02-10T01:51:09.667Z,0.60
2018-02-10T01:53:38.052Z,0.60
2018-02-10T01:56:05.519Z,0.70
2018-02-10T01:58:33.025Z,0.70
2018-02-10T02:01:01.272Z,0.70
2018-02-10T02:03:28.766Z,0.70
2018-02-10T02:05:57.025Z,0.80
2018-02-10T02:08:24.548Z,0.70
2018-02-10T02:10:52.057Z,0.80
2018-02-10T02:13:20.316Z,0.70
2018-02-10T02:15:47.818Z,0.70
2018-02-10T02:18:15.314Z,0.70
2018-02-10T02:20:42.824Z,0.60
2018-02-10T02:23:10.294Z,0.60
2018-02-10T02:25:37.855Z,0.60
2018-02-10T02:28:05.356Z,0.50
2018-02-10T02:30:32.827Z,0.60
2018-02-10T02:33:00.299Z,0.50
2018-02-10T02:35:28.572Z,0.60
2018-02-10T02:37:56.800Z,0.60
2018-02-10T02:40:24.336Z,0.50
2018-02-10T02:42:52.552Z,0.60
2018-02-10T02:45:20.063Z,0.60
2018-02-10T02:47:47.567Z,0.60
2018-02-10T02:50:15.053Z,0.60
2018-02-10T02:52:43.736Z,0.60
2018-02-10T02:55:11.972Z,0.60
2018-02-10T02:57:39.443Z,0.60
2018-02-10T03:00:06.952Z,0.60
2018-02-10T03:02:34.438Z,0.60
2018-02-10T03:05:01.985Z,0.70
2018-02-10T03:07:29.487Z,0.80
2018-02-10T03:09:56.983Z,0.80
2018-02-10T03:12:24.451Z,0.80
2018-02-10T03:14:51.946Z,0.80
2018-02-10T03:17:19.456Z,0.80
2018-02-10T03:19:46.956Z,0.80
2018-02-10T03:22:14.449Z,0.90
2018-02-10T03:24:41.943Z,0.90
2018-02-10T03:27:09.426Z,0.80
2018-02-10T03:29:36.915Z,0.80
2018-02-10T03:32:04.398Z,0.80
2018-02-10T03:34:32.692Z,0.90
2018-02-10T03:37:00.160Z,0.80
2018-02-10T03:39:27.652Z,0.80
2018-02-10T03:41:55.138Z,0.80
2018-02-10T03:44:23.404Z,0.80
2018-02-10T03:46:50.877Z,0.80
2018-02-10T03:49:19.165Z,0.80
2018-02-10T03:51:46.621Z,0.80
2018-02-10T03:54:14.128Z,0.80
2018-02-10T03:56:41.595Z,0.80
2018-02-10T03:59:09.083Z,0.80
2018-02-10T04:01:37.334Z,0.80
2018-02-10T04:04:04.840Z,0.80
2018-02-10T04:06:32.312Z,0.80
2018-02-10T04:08:59.911Z,0.70
2018-02-10T04:11:27.379Z,0.80
2018-02-10T04:13:55.640Z,0.80
2018-02-10T04:16:23.147Z,0.80
2018-02-10T04:18:50.636Z,0.80
2018-02-10T04:21:18.120Z,0.80
2018-02-10T04:23:45.629Z,0.80
2018-02-10T04:26:13.109Z,0.80
2018-02-10T04:28:40.612Z,0.70
2018-02-10T04:31:08.852Z,0.70
2018-02-10T04:33:36.356Z,0.70
2018-02-10T04:36:03.819Z,0.70
2018-02-10T04:38:31.328Z,0.70
2018-02-10T04:40:58.794Z,0.70
2018-02-10T04:43:26.311Z,0.60
2018-02-10T04:45:53.807Z,0.60
2018-02-10T04:48:21.304Z,0.60
2018-02-10T04:50:48.783Z,0.60
2018-02-10T04:53:16.304Z,0.60
2018-02-10T04:55:44.537Z,0.70
2018-02-10T04:58:11.999Z,0.60
2018-02-10T05:00:39.520Z,0.70
2018-02-10T05:03:07.012Z,0.70
2018-02-10T05:05:34.484Z,0.70
2018-02-10T05:08:01.987Z,0.70
2018-02-10T05:10:29.463Z,0.70
2018-02-10T05:12:56.944Z,0.70
2018-02-10T05:15:24.448Z,0.70
2018-02-10T05:17:52.674Z,0.60
2018-02-10T05:20:20.188Z,0.60
2018-02-10T05:22:48.476Z,0.70
2018-02-10T05:25:15.939Z,0.70
2018-02-10T05:27:43.406Z,0.70
2018-02-10T05:30:10.910Z,0.70
2018-02-10T05:32:38.384Z,0.70
2018-02-10T05:35:06.647Z,0.70
2018-02-10T05:37:34.116Z,0.70
2018-02-10T05:40:02.384Z,0.80
2018-02-10T05:42:30.624Z,0.70
2018-02-10T05:44:58.136Z,0.70
2018-02-10T05:47:25.617Z,0.70
2018-02-10T05:49:53.107Z,0.80
2018-02-10T05:52:20.571Z,0.80
2018-02-10T05:54:48.071Z,0.90
2018-02-10T05:57:15.544Z,0.90
2018-02-10T05:59:43.048Z,0.90
2018-02-10T06:02:10.538Z,0.90
2018-02-10T06:04:38.803Z,0.90
2018-02-10T06:07:07.043Z,0.90
2018-02-10T06:09:34.555Z,0.90
2018-02-10T06:12:02.019Z,0.90
2018-02-10T06:14:29.511Z,1.00
2018-02-10T06:16:56.992Z,1.00
2018-02-10T06:19:24.485Z,1.00
2018-02-10T06:21:51.968Z,1.00
2018-02-10T06:24:19.576Z,1.00
2018-02-10T06:26:47.037Z,0.90
2018-02-10T06:29:15.281Z,0.90
2018-02-10T06:31:42.771Z,0.90
2018-02-10T06:34:10.248Z,0.90
2018-02-10T06:36:38.525Z,0.90
2018-02-10T06:39:06.752Z,0.90
2018-02-10T06:41:34.242Z,0.80
2018-02-10T06:44:02.475Z,0.90
2018-02-10T06:46:29.999Z,0.90
2018-02-10T06:48:57.464Z,0.90
2018-02-10T06:51:24.974Z,0.90
2018-02-10T06:53:52.456Z,0.90
2018-02-10T06:56:20.712Z,0.80
2018-02-10T06:58:48.201Z,0.90
2018-02-10T07:01:15.710Z,0.90
2018-02-10T07:03:43.166Z,0.80
2018-02-10T07:06:10.667Z,0.90
2018-02-10T07:08:38.960Z,0.90
2018-02-10T07:11:06.435Z,0.90
2018-02-10T07:13:33.898Z,0.90
2018-02-10T07:16:01.408Z,1.00
2018-02-10T07:18:28.910Z,1.00
2018-02-10T07:20:56.384Z,1.10
2018-02-10T07:23:24.088Z,1.10
2018-02-10T07:25:52.435Z,1.10
2018-02-10T07:28:19.884Z,1.10
2018-02-10T07:30:48.158Z,1.20
2018-02-10T07:33:15.781Z,1.20
2018-02-10T07:35:43.273Z,1.20
2018-02-10T07:38:10.745Z,1.20
2018-02-10T07:40:38.244Z,1.20
2018-02-10T07:43:06.487Z,1.30
2018-02-10T07:45:33.988Z,1.20
2018-02-10T07:48:02.218Z,1.20
2018-02-10T07:50:29.735Z,1.20
2018-02-10T07:52:57.212Z,1.20
2018-02-10T07:55:24.712Z,1.20
2018-02-10T07:57:52.951Z,1.20
2018-02-10T08:00:20.442Z,1.20
2018-02-10T08:02:47.896Z,1.30
2018-02-10T08:05:15.400Z,1.30
2018-02-10T08:07:42.887Z,1.30
2018-02-10T08:10:10.381Z,1.30
2018-02-10T08:12:38.630Z,1.30
2018-02-10T08:15:06.152Z,1.30
2018-02-10T08:17:33.615Z,1.30
2018-02-10T08:20:01.135Z,1.30
2018-02-10T08:22:29.388Z,1.20
2018-02-10T08:24:56.911Z,1.20
2018-02-10T08:27:24.380Z,1.20
2018-02-10T08:29:51.881Z,1.30
2018-02-10T08:32:20.111Z,1.40
2018-02-10T08:34:47.609Z,1.30
2018-02-10T08:37:15.084Z,1.50
2018-02-10T08:39:42.592Z,1.50
2018-02-10T08:42:10.075Z,1.50
2018-02-10T08:44:37.578Z,1.50
2018-02-10T08:47:05.119Z,1.50
2018-02-10T08:49:32.591Z,1.60
2018-02-10T08:52:00.084Z,1.60
2018-02-10T08:54:27.574Z,1.70
2018-02-10T08:56:55.046Z,1.80
2018-02-10T08:59:22.571Z,1.80
2018-02-10T09:01:50.058Z,1.90
2018-02-10T09:04:18.316Z,2.00
2018-02-10T09:06:45.797Z,2.00
2018-02-10T09:09:14.072Z,2.10
2018-02-10T09:11:42.319Z,2.10
2018-02-10T09:14:09.811Z,2.10
2018-02-10T09:16:37.306Z,2.20
2018-02-10T09:19:04.944Z,2.10
2018-02-10T09:21:32.412Z,2.20
2018-02-10T09:23:59.906Z,2.20
2018-02-10T09:26:27.389Z,2.10
2018-02-10T09:28:55.793Z,2.20
2018-02-10T09:31:23.263Z,2.20
2018-02-10T09:33:50.752Z,2.20
2018-02-10T09:36:18.251Z,2.20
2018-02-10T09:38:45.724Z,2.20
2018-02-10T09:41:13.238Z,2.30
2018-02-10T09:43:40.714Z,2.30
2018-02-10T09:46:08.982Z,2.40
2018-02-10T09:48:37.246Z,2.40
2018-02-10T09:51:04.887Z,2.40
2018-02-10T09:53:41.291Z,2.40
2018-02-10T09:56:10.308Z,2.60
2018-02-10T09:58:37.784Z,2.60
2018-02-10T10:01:05.281Z,2.70
2018-02-10T10:03:32.756Z,2.70
2018-02-10T10:06:01.057Z,2.80
2018-02-10T10:08:31.143Z,2.80
2018-02-10T10:10:58.767Z,2.90
2018-02-10T10:13:26.240Z,2.90
2018-02-10T10:15:53.749Z,3.00
2018-02-10T10:18:21.320Z,2.90
2018-02-10T10:20:48.808Z,2.80
2018-02-10T10:23:16.281Z,2.90
2018-02-10T10:25:43.775Z,3.00
2018-02-10T10:28:11.273Z,3.00
2018-02-10T10:30:38.774Z,3.10
2018-02-10T10:33:07.029Z,3.30
2018-02-10T10:35:34.581Z,3.30
2018-02-10T10:38:02.068Z,3.40
2018-02-10T10:40:30.359Z,3.40
2018-02-10T10:42:57.867Z,3.40
2018-02-10T10:45:25.373Z,3.40
2018-02-10T10:47:53.635Z,3.40
2018-02-10T10:50:21.900Z,3.50
2018-02-10T10:52:49.384Z,3.40
2018-02-10T10:55:16.874Z,3.50
2018-02-10T10:57:44.363Z,3.50
2018-02-10T11:00:11.871Z,2.70
2018-02-10T11:02:39.382Z,3.50
2018-02-10T11:05:06.898Z,3.50
2018-02-10T11:07:34.379Z,3.50
2018-02-10T11:10:01.874Z,3.40
2018-02-10T11:12:30.126Z,3.20
2018-02-10T11:14:57.648Z,3.20
2018-02-10T11:17:25.131Z,3.10
2018-02-10T11:19:52.693Z,3.00
2018-02-10T11:22:20.163Z,3.00
2018-02-10T11:24:47.698Z,3.00
2018-02-10T11:27:15.411Z,3.00
2018-02-10T11:29:43.704Z,3.00
2018-02-10T11:32:11.172Z,3.00
2018-02-10T11:34:38.675Z,3.10
2018-02-10T11:37:06.155Z,3.10
2018-02-10T11:39:34.426Z,3.10
2018-02-10T11:42:01.915Z,3.10
2018-02-10T11:44:29.426Z,3.10
2018-02-10T11:46:56.910Z,3.10
2018-02-10T11:49:25.173Z,3.20
2018-02-10T11:51:52.642Z,3.20
2018-02-10T11:54:20.917Z,3.30
2018-02-10T11:56:49.163Z,3.30
2018-02-10T11:59:16.646Z,3.20
2018-02-10T12:01:44.905Z,3.20
2018-02-10T12:04:12.395Z,3.20
2018-02-10T12:06:40.669Z,3.20
2018-02-10T12:09:08.972Z,3.20
2018-02-10T12:11:36.442Z,3.20
2018-02-10T12:14:03.958Z,3.20
2018-02-10T12:16:32.203Z,3.30
2018-02-10T12:18:59.689Z,3.30
2018-02-10T12:21:27.979Z,3.50
2018-02-10T12:23:55.545Z,3.50
2018-02-10T12:26:23.028Z,3.50
2018-02-10T12:28:50.504Z,3.40
2018-02-10T12:31:17.999Z,3.50
2018-02-10T12:33:46.321Z,3.40
2018-02-10T12:36:13.838Z,3.40
2018-02-10T12:38:42.079Z,3.50
2018-02-10T12:41:09.561Z,3.50
2018-02-10T12:43:37.795Z,3.60
2018-02-10T12:46:05.302Z,3.60
2018-02-10T12:48:39.168Z,3.70
2018-02-10T12:51:06.661Z,3.60
2018-02-10T12:53:34.900Z,3.50
2018-02-10T12:56:02.356Z,3.50
2018-02-10T12:58:29.868Z,3.50
2018-02-10T13:00:57.390Z,3.60
2018-02-10T13:03:24.868Z,3.60
2018-02-10T13:05:53.133Z,3.70
2018-02-10T13:08:20.600Z,3.70
2018-02-10T13:10:48.875Z,3.80
2018-02-10T13:13:16.352Z,3.80
2018-02-10T13:15:44.618Z,3.70
2018-02-10T13:18:12.870Z,3.70
2018-02-10T13:20:40.756Z,3.70
2018-02-10T13:23:09.008Z,3.60
2018-02-10T13:25:36.497Z,3.50
2018-02-10T13:28:04.792Z,3.60
2018-02-10T13:30:32.268Z,3.50
2018-02-10T13:32:59.779Z,3.50
2018-02-10T13:35:28.031Z,3.60
2018-02-10T13:37:56.332Z,3.50
2018-02-10T13:40:23.821Z,3.50
2018-02-10T13:42:51.332Z,3.40
2018-02-10T13:45:18.816Z,3.40
2018-02-10T13:47:47.080Z,3.40
2018-02-10T13:50:15.326Z,3.40
2018-02-10T13:52:42.819Z,3.40
2018-02-10T13:55:11.064Z,3.40
2018-02-10T13:57:38.568Z,3.40
2018-02-10T14:00:06.052Z,3.50
2018-02-10T14:02:33.543Z,3.50
2018-02-10T14:05:01.034Z,3.50
2018-02-10T14:07:29.320Z,3.40
2018-02-10T14:09:56.849Z,3.40
2018-02-10T14:12:24.371Z,3.40
2018-02-10T14:14:51.870Z,3.30
2018-02-10T14:17:20.176Z,3.30
2018-02-10T14:19:47.650Z,3.30
2018-02-10T14:22:15.156Z,3.30
2018-02-10T14:24:43.055Z,3.40
2018-02-10T14:27:10.598Z,3.40
2018-02-10T14:29:38.078Z,3.40
2018-02-10T14:32:05.584Z,3.40
2018-02-10T14:34:33.046Z,3.40
2018-02-10T14:37:00.558Z,3.40
2018-02-10T14:39:28.019Z,3.40
2018-02-10T14:41:55.525Z,3.30
2018-02-10T14:44:22.996Z,3.30
2018-02-10T14:46:50.503Z,3.30
2018-02-10T14:49:17.973Z,3.30
2018-02-10T14:51:45.475Z,3.30
2018-02-10T14:54:13.721Z,3.20
2018-02-10T14:56:41.206Z,3.20
2018-02-10T14:59:09.488Z,3.20
2018-02-10T15:01:37.743Z,3.20
2018-02-10T15:04:05.274Z,3.20
2018-02-10T15:06:32.749Z,3.20
2018-02-10T15:09:00.260Z,3.10
2018-02-10T15:11:27.768Z,3.10
2018-02-10T15:13:55.325Z,3.10
2018-02-10T15:16:22.786Z,3.10
2018-02-10T15:18:50.304Z,3.10
2018-02-10T15:21:17.764Z,3.10
2018-02-10T15:23:45.272Z,3.10
2018-02-10T15:26:12.763Z,3.10
2018-02-10T15:28:41.008Z,3.10
2018-02-10T15:31:20.486Z,3.00
2018-02-10T15:34:00.001Z,3.10
2018-02-10T15:36:28.253Z,3.10
2018-02-10T15:38:55.755Z,3.00
2018-02-10T15:41:23.234Z,3.00
2018-02-10T15:43:50.746Z,2.90
2018-02-10T15:46:18.997Z,2.90
2018-02-10T15:48:46.513Z,2.90
2018-02-10T15:51:14.001Z,3.00
2018-02-10T15:53:41.508Z,2.90
2018-02-10T15:56:08.989Z,2.90
2018-02-10T15:58:36.492Z,2.90
2018-02-10T16:01:03.979Z,2.90
2018-02-10T16:03:32.257Z,2.90
2018-02-10T16:06:00.549Z,2.80
2018-02-10T16:08:28.042Z,2.80
2018-02-10T16:10:55.540Z,2.80
2018-02-10T16:13:23.804Z,2.60
2018-02-10T16:15:51.294Z,2.60
2018-02-10T16:18:18.834Z,2.60
2018-02-10T16:20:47.074Z,2.50
2018-02-10T16:23:14.581Z,2.40
2018-02-10T16:25:42.066Z,2.50
2018-02-10T16:28:09.599Z,2.50
2018-02-10T16:30:37.059Z,2.50
2018-02-10T16:33:04.555Z,2.50
2018-02-10T16:35:32.075Z,2.40
2018-02-10T16:37:59.582Z,2.30
2018-02-10T16:40:27.084Z,2.40
2018-02-10T16:42:54.573Z,2.40
2018-02-10T16:45:22.081Z,2.40
2018-02-10T16:47:50.327Z,2.40
2018-02-10T16:50:17.830Z,2.40
2018-02-10T16:52:46.072Z,2.40
2018-02-10T16:55:13.581Z,2.40
2018-02-10T16:57:41.051Z,2.50
2018-02-10T17:00:08.591Z,2.50
2018-02-10T17:02:36.100Z,2.50
2018-02-10T17:05:03.608Z,2.40
2018-02-10T17:07:31.078Z,2.40
2018-02-10T17:09:58.586Z,2.30
2018-02-10T17:12:26.064Z,2.20
2018-02-10T17:14:54.333Z,2.20
2018-02-10T17:17:22.581Z,2.20
2018-02-10T17:19:50.201Z,2.20
2018-02-10T17:22:17.692Z,2.20
2018-02-10T17:24:45.207Z,2.20
2018-02-10T17:27:12.694Z,2.10
2018-02-10T17:29:40.198Z,2.00
2018-02-10T17:32:08.442Z,2.00
2018-02-10T17:34:35.984Z,2.00
2018-02-10T17:37:03.449Z,2.00
2018-02-10T17:39:30.987Z,2.00
2018-02-10T17:41:58.454Z,2.00
2018-02-10T17:44:25.981Z,2.00
2018-02-10T17:46:54.243Z,1.90
2018-02-10T17:49:21.719Z,1.90
2018-02-10T17:51:50.053Z,1.80
2018-02-10T17:54:17.597Z,1.80
2018-02-10T17:56:45.067Z,1.70
2018-02-10T17:59:12.556Z,1.60
2018-02-10T18:01:41.606Z,1.50
2018-02-10T18:04:09.126Z,1.40
2018-02-10T18:06:36.593Z,1.40
2018-02-10T18:09:04.111Z,1.30
2018-02-10T18:11:31.612Z,1.20
2018-02-10T18:13:59.084Z,1.10
2018-02-10T18:16:26.603Z,1.00
2018-02-10T18:18:54.868Z,0.80
2018-02-10T18:21:23.142Z,0.70
2018-02-10T18:23:51.390Z,0.60
2018-02-10T18:26:18.905Z,0.60
2018-02-10T18:28:46.387Z,0.50
2018-02-10T18:31:13.910Z,0.50
2018-02-10T18:33:42.255Z,0.40
2018-02-10T18:36:09.754Z,0.40
2018-02-10T18:38:37.226Z,0.30
2018-02-10T18:41:04.818Z,0.20
2018-02-10T18:43:32.297Z,0.20
2018-02-10T18:46:00.542Z,0.20
2018-02-10T18:48:28.485Z,0.10
2018-02-10T18:50:55.973Z,0.10
2018-02-10T18:53:23.459Z,0.10
2018-02-10T18:55:50.976Z,0.10
2018-02-10T18:58:19.247Z,0.20
2018-02-10T19:00:46.728Z,0.20
2018-02-10T19:03:14.245Z,0.10
2018-02-10T19:05:41.718Z,0.10
2018-02-10T19:08:09.211Z,0.10
2018-02-10T19:10:36.692Z,0.00
2018-02-10T19:13:05.001Z,0.00
2018-02-10T19:15:32.491Z,0.00
2018-02-10T19:18:00.025Z,-0.10
2018-02-10T19:20:27.508Z,-0.10
2018-02-10T19:22:55.139Z,-0.20
2018-02-10T19:25:22.635Z,-0.10
2018-02-10T19:27:50.141Z,-0.20
2018-02-10T19:30:17.670Z,-0.20
2018-02-10T19:32:45.184Z,-0.20
2018-02-10T19:35:12.691Z,-0.20
2018-02-10T19:37:40.194Z,-0.10
2018-02-10T19:40:07.689Z,-0.20
2018-02-10T19:42:35.307Z,-0.20
2018-02-10T19:45:02.824Z,-0.10
2018-02-10T19:47:30.299Z,-0.20
2018-02-10T19:49:57.881Z,-0.10
2018-02-10T19:52:25.364Z,-0.10
2018-02-10T19:54:52.929Z,-0.10
2018-02-10T19:57:20.420Z,-0.10
2018-02-10T19:59:48.697Z,0.00
2018-02-10T20:02:16.931Z,0.00
2018-02-10T20:04:44.457Z,0.00
2018-02-10T20:07:11.957Z,0.10
2018-02-10T20:09:39.448Z,0.10
2018-02-10T20:12:07.715Z,0.20
2018-02-10T20:14:35.218Z,0.20
2018-02-10T20:17:02.708Z,0.20
2018-02-10T20:19:30.238Z,0.30
2018-02-10T20:21:57.732Z,0.30
2018-02-10T20:24:25.257Z,0.30
2018-02-10T20:26:52.738Z,0.30
2018-02-10T20:29:20.991Z,0.40
2018-02-10T20:31:48.476Z,0.40
2018-02-10T20:34:15.968Z,0.40
2018-02-10T20:36:43.475Z,0.40
2018-02-10T20:39:11.181Z,0.40
2018-02-10T20:41:38.683Z,0.30
2018-02-10T20:44:06.215Z,0.30
2018-02-10T20:46:34.468Z,0.20
2018-02-10T20:49:01.992Z,0.20
2018-02-10T20:51:29.536Z,0.20
2018-02-10T20:53:57.010Z,0.20
2018-02-10T20:56:24.527Z,0.20
2018-02-10T20:58:52.777Z,0.10
2018-02-10T21:01:20.294Z,0.10
2018-02-10T21:03:47.771Z,0.10
2018-02-10T21:06:15.284Z,0.10
2018-02-10T21:08:42.761Z,0.10
2018-02-10T21:11:10.260Z,0.10
2018-02-10T21:13:37.757Z,0.10
2018-02-10T21:16:05.265Z,0.00
2018-02-10T21:18:32.748Z,0.00
2018-02-10T21:21:00.430Z,-0.10
2018-02-10T21:23:27.969Z,-0.10
2018-02-10T21:25:56.280Z,-0.10
2018-02-10T21:28:23.788Z,-0.10
2018-02-10T21:30:51.332Z,-0.10
2018-02-10T21:33:18.838Z,-0.10
2018-02-10T21:35:47.062Z,0.00
2018-02-10T21:38:14.567Z,0.00
2018-02-10T21:40:42.822Z,0.10
2018-02-10T21:43:10.334Z,0.00
2018-02-10T21:45:37.825Z,0.10
2018-02-10T21:48:05.348Z,0.20
2018-02-10T21:50:32.837Z,0.20
2018-02-10T21:53:00.394Z,0.30
2018-02-10T21:55:27.864Z,0.30
2018-02-10T21:57:55.394Z,0.30
2018-02-10T22:00:22.892Z,0.40
2018-02-10T22:02:51.578Z,0.40
2018-02-10T22:05:19.822Z,0.50
2018-02-10T22:07:47.303Z,0.40
2018-02-10T22:10:14.804Z,0.50
2018-02-10T22:12:42.318Z,0.50
2018-02-10T22:15:09.798Z,0.50
2018-02-10T22:17:38.067Z,0.50
2018-02-10T22:20:06.302Z,0.50
2018-02-10T22:22:33.813Z,0.50
2018-02-10T22:25:02.110Z,0.50
2018-02-10T22:27:29.607Z,0.50
2018-02-10T22:29:57.079Z,0.40
2018-02-10T22:32:24.590Z,0.40
2018-02-10T22:34:52.064Z,0.40
2018-02-10T22:37:19.576Z,0.40
2018-02-10T22:39:47.088Z,0.40
2018-02-10T22:42:14.607Z,0.40
2018-02-10T22:44:42.474Z,0.40
2018-02-10T22:47:09.949Z,0.40
2018-02-10T22:49:37.443Z,0.30
2018-02-10T22:52:04.924Z,0.30
2018-02-10T22:54:33.195Z,0.30
2018-02-10T22:57:00.660Z,0.30
2018-02-10T22:59:28.936Z,0.30
2018-02-10T23:01:57.188Z,0.30
2018-02-10T23:04:24.680Z,0.30
2018-02-10T23:06:52.165Z,0.40
2018-02-10T23:09:19.685Z,0.40
2018-02-10T23:11:47.924Z,0.40
2018-02-10T23:14:15.449Z,0.40
2018-02-10T23:16:42.928Z,0.50
2018-02-10T23:19:10.475Z,0.50
2018-02-10T23:21:37.953Z,0.50
2018-02-10T23:24:05.483Z,0.60
2018-02-10T23:26:32.946Z,0.60
2018-02-10T23:29:00.453Z,0.60
2018-02-10T23:31:27.932Z,0.70
2018-02-10T23:33:56.195Z,0.70
2018-02-10T23:36:23.670Z,0.70
2018-02-10T23:38:51.168Z,0.70
2018-02-10T23:41:18.637Z,0.70
2018-02-10T23:43:46.134Z,0.70
2018-02-10T23:46:14.367Z,0.70
2018-02-10T23:48:41.862Z,0.70
2018-02-10T23:51:10.101Z,0.70
2018-02-10T23:53:38.390Z,0.70
2018-02-10T23:56:05.870Z,0.70
2018-02-10T23:58:34.144Z,0.70
